sensor_id;sensor_type;location;lat;lon;timestamp;temperature;humidity
34406;DHT22;20658;45.630;8.886;2023-05-20T00:00:52;12.70;99.90
34406;DHT22;20658;45.630;8.886;2023-05-20T00:03:20;12.70;99.90
34406;DHT22;20658;45.630;8.886;2023-05-20T00:05:48;12.70;99.90
34406;DHT22;20658;45.630;8.886;2023-05-20T00:08:17;12.70;99.90
34406;DHT22;20658;45.630;8.886;2023-05-20T00:10:51;12.70;99.90
34406;DHT22;20658;45.630;8.886;2023-05-20T00:13:20;12.70;99.90
34406;DHT22;20658;45.630;8.886;2023-05-20T00:15:56;12.60;99.90
34406;DHT22;20658;45.630;8.886;2023-05-20T00:18:24;12.60;99.90
34406;DHT22;20658;45.630;8.886;2023-05-20T00:20:53;12.60;99.90
34406;DHT22;20658;45.630;8.886;2023-05-20T00:23:21;12.60;99.90
34406;DHT22;20658;45.630;8.886;2023-05-20T00:25:50;12.60;99.90
34406;DHT22;20658;45.630;8.886;2023-05-20T00:28:23;12.60;99.90
34406;DHT22;20658;45.630;8.886;2023-05-20T00:30:51;12.60;99.90
34406;DHT22;20658;45.630;8.886;2023-05-20T00:33:26;12.60;99.90
34406;DHT22;20658;45.630;8.886;2023-05-20T00:35:55;12.50;99.90
34406;DHT22;20658;45.630;8.886;2023-05-20T00:38:23;12.50;99.90
34406;DHT22;20658;45.630;8.886;2023-05-20T00:40:57;12.50;99.90
34406;DHT22;20658;45.630;8.886;2023-05-20T00:43:25;12.40;99.90
34406;DHT22;20658;45.630;8.886;2023-05-20T00:45:54;12.30;99.90
34406;DHT22;20658;45.630;8.886;2023-05-20T00:48:23;12.30;99.90
34406;DHT22;20658;45.630;8.886;2023-05-20T00:50:58;12.30;99.90
34406;DHT22;20658;45.630;8.886;2023-05-20T00:53:33;12.30;99.90
34406;DHT22;20658;45.630;8.886;2023-05-20T00:56:03;12.20;99.90
34406;DHT22;20658;45.630;8.886;2023-05-20T00:58:37;12.20;99.90
34406;DHT22;20658;45.630;8.886;2023-05-20T01:01:11;12.20;99.90
34406;DHT22;20658;45.630;8.886;2023-05-20T01:03:45;12.10;99.90
34406;DHT22;20658;45.630;8.886;2023-05-20T01:06:15;12.10;99.90
34406;DHT22;20658;45.630;8.886;2023-05-20T01:08:45;12.10;99.90
34406;DHT22;20658;45.630;8.886;2023-05-20T01:11:26;12.10;99.90
34406;DHT22;20658;45.630;8.886;2023-05-20T01:14:06;12.10;99.90
34406;DHT22;20658;45.630;8.886;2023-05-20T01:16:40;12.10;99.90
34406;DHT22;20658;45.630;8.886;2023-05-20T01:19:23;12.00;99.90
34406;DHT22;20658;45.630;8.886;2023-05-20T01:22:02;12.00;99.90
34406;DHT22;20658;45.630;8.886;2023-05-20T01:24:41;12.00;99.90
34406;DHT22;20658;45.630;8.886;2023-05-20T01:27:14;12.00;99.90
34406;DHT22;20658;45.630;8.886;2023-05-20T01:29:46;12.00;99.90
34406;DHT22;20658;45.630;8.886;2023-05-20T01:32:19;12.00;99.90
34406;DHT22;20658;45.630;8.886;2023-05-20T01:34:51;12.00;99.90
34406;DHT22;20658;45.630;8.886;2023-05-20T01:37:21;12.10;99.90
34406;DHT22;20658;45.630;8.886;2023-05-20T01:39:53;12.00;99.90
34406;DHT22;20658;45.630;8.886;2023-05-20T01:42:23;12.00;99.90
34406;DHT22;20658;45.630;8.886;2023-05-20T01:44:53;12.10;99.90
34406;DHT22;20658;45.630;8.886;2023-05-20T01:47:26;12.10;99.90
34406;DHT22;20658;45.630;8.886;2023-05-20T01:49:55;12.10;99.90
34406;DHT22;20658;45.630;8.886;2023-05-20T01:52:28;12.10;99.90
34406;DHT22;20658;45.630;8.886;2023-05-20T01:55:04;12.10;99.90
34406;DHT22;20658;45.630;8.886;2023-05-20T01:57:38;12.10;99.90
34406;DHT22;20658;45.630;8.886;2023-05-20T02:00:07;12.10;99.90
34406;DHT22;20658;45.630;8.886;2023-05-20T02:02:43;12.20;99.90
34406;DHT22;20658;45.630;8.886;2023-05-20T02:05:12;12.20;99.90
34406;DHT22;20658;45.630;8.886;2023-05-20T02:07:46;12.10;99.90
34406;DHT22;20658;45.630;8.886;2023-05-20T02:10:16;12.10;99.90
34406;DHT22;20658;45.630;8.886;2023-05-20T02:12:49;12.20;99.90
34406;DHT22;20658;45.630;8.886;2023-05-20T02:15:23;12.20;99.90
34406;DHT22;20658;45.630;8.886;2023-05-20T02:17:51;12.20;99.90
34406;DHT22;20658;45.630;8.886;2023-05-20T02:20:20;12.20;99.90
34406;DHT22;20658;45.630;8.886;2023-05-20T02:22:49;12.20;99.90
34406;DHT22;20658;45.630;8.886;2023-05-20T02:25:18;12.20;99.90
34406;DHT22;20658;45.630;8.886;2023-05-20T02:27:47;12.20;99.90
34406;DHT22;20658;45.630;8.886;2023-05-20T02:30:15;12.20;99.90
34406;DHT22;20658;45.630;8.886;2023-05-20T02:32:44;12.20;99.90
34406;DHT22;20658;45.630;8.886;2023-05-20T02:35:17;12.20;99.90
34406;DHT22;20658;45.630;8.886;2023-05-20T02:37:51;12.20;99.90
34406;DHT22;20658;45.630;8.886;2023-05-20T02:40:21;12.20;99.90
34406;DHT22;20658;45.630;8.886;2023-05-20T02:42:49;12.20;99.90
34406;DHT22;20658;45.630;8.886;2023-05-20T02:45:18;12.30;99.90
34406;DHT22;20658;45.630;8.886;2023-05-20T02:47:51;12.30;99.90
34406;DHT22;20658;45.630;8.886;2023-05-20T02:50:20;12.30;99.90
34406;DHT22;20658;45.630;8.886;2023-05-20T02:52:53;12.30;99.90
34406;DHT22;20658;45.630;8.886;2023-05-20T02:55:28;12.30;99.90
34406;DHT22;20658;45.630;8.886;2023-05-20T02:58:02;12.30;99.90
34406;DHT22;20658;45.630;8.886;2023-05-20T03:00:36;12.30;99.90
34406;DHT22;20658;45.630;8.886;2023-05-20T03:03:11;12.30;99.90
34406;DHT22;20658;45.630;8.886;2023-05-20T03:05:45;12.30;99.90
34406;DHT22;20658;45.630;8.886;2023-05-20T03:08:20;12.30;99.90
34406;DHT22;20658;45.630;8.886;2023-05-20T03:10:57;12.30;99.90
34406;DHT22;20658;45.630;8.886;2023-05-20T03:13:30;12.30;99.90
34406;DHT22;20658;45.630;8.886;2023-05-20T03:16:04;12.30;99.90
34406;DHT22;20658;45.630;8.886;2023-05-20T03:18:32;12.30;99.90
34406;DHT22;20658;45.630;8.886;2023-05-20T03:21:06;12.30;99.90
34406;DHT22;20658;45.630;8.886;2023-05-20T03:23:39;12.30;99.90
34406;DHT22;20658;45.630;8.886;2023-05-20T03:26:14;12.30;99.90
34406;DHT22;20658;45.630;8.886;2023-05-20T03:28:44;12.30;99.90
34406;DHT22;20658;45.630;8.886;2023-05-20T03:31:17;12.30;99.90
34406;DHT22;20658;45.630;8.886;2023-05-20T03:33:46;12.30;99.90
34406;DHT22;20658;45.630;8.886;2023-05-20T03:36:20;12.30;99.90
34406;DHT22;20658;45.630;8.886;2023-05-20T03:38:53;12.30;99.90
34406;DHT22;20658;45.630;8.886;2023-05-20T03:41:23;12.30;99.90
34406;DHT22;20658;45.630;8.886;2023-05-20T03:43:57;12.30;99.90
34406;DHT22;20658;45.630;8.886;2023-05-20T03:46:30;12.30;99.90
34406;DHT22;20658;45.630;8.886;2023-05-20T03:49:00;12.30;99.90
34406;DHT22;20658;45.630;8.886;2023-05-20T03:51:33;12.30;99.90
34406;DHT22;20658;45.630;8.886;2023-05-20T03:54:10;12.30;99.90
34406;DHT22;20658;45.630;8.886;2023-05-20T03:56:49;12.20;99.90
34406;DHT22;20658;45.630;8.886;2023-05-20T03:59:23;12.30;99.90
34406;DHT22;20658;45.630;8.886;2023-05-20T04:01:56;12.30;99.90
34406;DHT22;20658;45.630;8.886;2023-05-20T04:04:30;12.30;99.90
34406;DHT22;20658;45.630;8.886;2023-05-20T04:07:04;12.30;99.90
34406;DHT22;20658;45.630;8.886;2023-05-20T04:09:33;12.30;99.90
34406;DHT22;20658;45.630;8.886;2023-05-20T04:12:05;12.30;99.90
34406;DHT22;20658;45.630;8.886;2023-05-20T04:14:38;12.30;99.90
34406;DHT22;20658;45.630;8.886;2023-05-20T04:17:08;12.30;99.90
34406;DHT22;20658;45.630;8.886;2023-05-20T04:19:41;12.30;99.90
34406;DHT22;20658;45.630;8.886;2023-05-20T04:22:10;12.30;99.90
34406;DHT22;20658;45.630;8.886;2023-05-20T04:24:44;12.20;99.90
34406;DHT22;20658;45.630;8.886;2023-05-20T04:27:14;12.20;99.90
34406;DHT22;20658;45.630;8.886;2023-05-20T04:29:43;12.20;99.90
34406;DHT22;20658;45.630;8.886;2023-05-20T04:32:18;12.20;99.90
34406;DHT22;20658;45.630;8.886;2023-05-20T04:34:47;12.30;99.90
34406;DHT22;20658;45.630;8.886;2023-05-20T04:37:17;12.30;99.90
34406;DHT22;20658;45.630;8.886;2023-05-20T04:39:51;12.30;99.90
34406;DHT22;20658;45.630;8.886;2023-05-20T04:42:26;12.30;99.90
34406;DHT22;20658;45.630;8.886;2023-05-20T04:45:00;12.30;99.90
34406;DHT22;20658;45.630;8.886;2023-05-20T04:47:32;12.30;99.90
34406;DHT22;20658;45.630;8.886;2023-05-20T04:50:10;12.30;99.90
34406;DHT22;20658;45.630;8.886;2023-05-20T04:52:40;12.30;99.90
34406;DHT22;20658;45.630;8.886;2023-05-20T04:55:16;12.30;99.90
34406;DHT22;20658;45.630;8.886;2023-05-20T04:57:48;12.30;99.90
34406;DHT22;20658;45.630;8.886;2023-05-20T05:00:17;12.30;99.90
34406;DHT22;20658;45.630;8.886;2023-05-20T05:02:52;12.30;99.90
34406;DHT22;20658;45.630;8.886;2023-05-20T05:05:26;12.40;99.90
34406;DHT22;20658;45.630;8.886;2023-05-20T05:07:59;12.40;99.90
34406;DHT22;20658;45.630;8.886;2023-05-20T05:10:29;12.40;99.90
34406;DHT22;20658;45.630;8.886;2023-05-20T05:13:05;12.40;99.90
34406;DHT22;20658;45.630;8.886;2023-05-20T05:15:38;12.40;99.90
34406;DHT22;20658;45.630;8.886;2023-05-20T05:18:12;12.40;99.90
34406;DHT22;20658;45.630;8.886;2023-05-20T05:20:44;12.40;99.90
34406;DHT22;20658;45.630;8.886;2023-05-20T05:23:18;12.40;99.90
34406;DHT22;20658;45.630;8.886;2023-05-20T05:25:50;12.40;99.90
34406;DHT22;20658;45.630;8.886;2023-05-20T05:28:25;12.40;99.90
34406;DHT22;20658;45.630;8.886;2023-05-20T05:30:59;12.40;99.90
34406;DHT22;20658;45.630;8.886;2023-05-20T05:33:28;12.40;99.90
34406;DHT22;20658;45.630;8.886;2023-05-20T05:35:57;12.40;99.90
34406;DHT22;20658;45.630;8.886;2023-05-20T05:38:27;12.40;99.90
34406;DHT22;20658;45.630;8.886;2023-05-20T05:41:00;12.50;99.90
34406;DHT22;20658;45.630;8.886;2023-05-20T05:43:35;12.50;99.90
34406;DHT22;20658;45.630;8.886;2023-05-20T05:46:09;12.60;99.90
34406;DHT22;20658;45.630;8.886;2023-05-20T05:48:42;12.60;99.90
34406;DHT22;20658;45.630;8.886;2023-05-20T05:51:19;12.70;99.90
34406;DHT22;20658;45.630;8.886;2023-05-20T05:53:48;12.70;99.90
34406;DHT22;20658;45.630;8.886;2023-05-20T05:56:17;12.80;99.90
34406;DHT22;20658;45.630;8.886;2023-05-20T05:58:52;12.80;99.90
34406;DHT22;20658;45.630;8.886;2023-05-20T06:01:26;12.90;99.90
34406;DHT22;20658;45.630;8.886;2023-05-20T06:03:54;12.90;99.90
34406;DHT22;20658;45.630;8.886;2023-05-20T06:06:29;12.90;99.90
34406;DHT22;20658;45.630;8.886;2023-05-20T06:09:03;12.90;99.90
34406;DHT22;20658;45.630;8.886;2023-05-20T06:11:36;12.90;99.90
34406;DHT22;20658;45.630;8.886;2023-05-20T06:14:10;13.00;99.90
34406;DHT22;20658;45.630;8.886;2023-05-20T06:16:39;12.90;99.90
34406;DHT22;20658;45.630;8.886;2023-05-20T06:19:07;13.00;99.90
34406;DHT22;20658;45.630;8.886;2023-05-20T06:21:36;13.00;99.90
34406;DHT22;20658;45.630;8.886;2023-05-20T06:24:05;13.00;99.90
34406;DHT22;20658;45.630;8.886;2023-05-20T06:26:35;13.00;99.90
34406;DHT22;20658;45.630;8.886;2023-05-20T06:29:04;13.10;99.90
34406;DHT22;20658;45.630;8.886;2023-05-20T06:31:40;13.10;99.90
34406;DHT22;20658;45.630;8.886;2023-05-20T06:34:08;13.10;99.90
34406;DHT22;20658;45.630;8.886;2023-05-20T06:36:41;13.20;99.90
34406;DHT22;20658;45.630;8.886;2023-05-20T06:39:10;13.30;99.90
34406;DHT22;20658;45.630;8.886;2023-05-20T06:41:45;13.30;99.90
34406;DHT22;20658;45.630;8.886;2023-05-20T06:44:26;13.40;99.90
34406;DHT22;20658;45.630;8.886;2023-05-20T06:47:15;13.40;99.90
34406;DHT22;20658;45.630;8.886;2023-05-20T06:49:50;13.40;99.90
34406;DHT22;20658;45.630;8.886;2023-05-20T06:52:24;13.50;99.90
34406;DHT22;20658;45.630;8.886;2023-05-20T06:54:58;13.50;99.90
34406;DHT22;20658;45.630;8.886;2023-05-20T06:57:33;13.50;99.90
34406;DHT22;20658;45.630;8.886;2023-05-20T07:00:02;13.40;99.90
34406;DHT22;20658;45.630;8.886;2023-05-20T07:02:36;13.40;99.90
34406;DHT22;20658;45.630;8.886;2023-05-20T07:05:12;13.40;99.90
34406;DHT22;20658;45.630;8.886;2023-05-20T07:07:40;13.40;99.90
34406;DHT22;20658;45.630;8.886;2023-05-20T07:10:14;13.40;99.90
34406;DHT22;20658;45.630;8.886;2023-05-20T07:12:42;13.50;99.90
34406;DHT22;20658;45.630;8.886;2023-05-20T07:15:16;13.50;99.90
34406;DHT22;20658;45.630;8.886;2023-05-20T07:17:46;13.60;99.90
34406;DHT22;20658;45.630;8.886;2023-05-20T07:20:20;13.60;99.90
34406;DHT22;20658;45.630;8.886;2023-05-20T07:22:55;13.80;99.90
34406;DHT22;20658;45.630;8.886;2023-05-20T07:25:35;13.70;99.90
34406;DHT22;20658;45.630;8.886;2023-05-20T07:28:08;13.70;99.90
34406;DHT22;20658;45.630;8.886;2023-05-20T07:30:42;13.70;99.90
34406;DHT22;20658;45.630;8.886;2023-05-20T07:33:26;13.70;99.90
34406;DHT22;20658;45.630;8.886;2023-05-20T07:36:03;13.80;99.90
34406;DHT22;20658;45.630;8.886;2023-05-20T07:38:39;13.80;99.90
34406;DHT22;20658;45.630;8.886;2023-05-20T07:41:14;13.90;99.90
34406;DHT22;20658;45.630;8.886;2023-05-20T07:43:42;13.90;99.90
34406;DHT22;20658;45.630;8.886;2023-05-20T07:46:15;14.00;99.90
34406;DHT22;20658;45.630;8.886;2023-05-20T07:48:51;14.00;99.90
34406;DHT22;20658;45.630;8.886;2023-05-20T07:51:24;14.00;99.90
34406;DHT22;20658;45.630;8.886;2023-05-20T07:53:58;14.00;99.90
34406;DHT22;20658;45.630;8.886;2023-05-20T07:56:32;14.00;99.90
34406;DHT22;20658;45.630;8.886;2023-05-20T07:59:01;14.00;99.90
34406;DHT22;20658;45.630;8.886;2023-05-20T08:01:42;14.00;99.90
34406;DHT22;20658;45.630;8.886;2023-05-20T08:04:19;14.00;99.90
34406;DHT22;20658;45.630;8.886;2023-05-20T08:06:48;13.90;99.90
34406;DHT22;20658;45.630;8.886;2023-05-20T08:09:33;14.00;99.90
34406;DHT22;20658;45.630;8.886;2023-05-20T08:12:03;13.90;99.90
34406;DHT22;20658;45.630;8.886;2023-05-20T08:14:32;13.90;99.90
34406;DHT22;20658;45.630;8.886;2023-05-20T08:17:00;13.90;99.90
34406;DHT22;20658;45.630;8.886;2023-05-20T08:19:35;14.00;99.90
34406;DHT22;20658;45.630;8.886;2023-05-20T08:22:09;14.00;99.90
34406;DHT22;20658;45.630;8.886;2023-05-20T08:24:40;14.10;99.90
34406;DHT22;20658;45.630;8.886;2023-05-20T08:27:09;14.10;99.90
34406;DHT22;20658;45.630;8.886;2023-05-20T08:29:43;14.10;99.90
34406;DHT22;20658;45.630;8.886;2023-05-20T08:32:12;14.10;99.90
34406;DHT22;20658;45.630;8.886;2023-05-20T08:34:47;14.10;99.90
34406;DHT22;20658;45.630;8.886;2023-05-20T08:37:16;14.20;99.90
34406;DHT22;20658;45.630;8.886;2023-05-20T08:39:45;14.30;99.90
34406;DHT22;20658;45.630;8.886;2023-05-20T08:42:20;14.40;99.90
34406;DHT22;20658;45.630;8.886;2023-05-20T08:44:52;14.40;99.90
34406;DHT22;20658;45.630;8.886;2023-05-20T08:47:22;14.50;99.90
34406;DHT22;20658;45.630;8.886;2023-05-20T08:49:58;14.40;99.90
34406;DHT22;20658;45.630;8.886;2023-05-20T08:52:27;14.50;99.90
34406;DHT22;20658;45.630;8.886;2023-05-20T08:55:01;14.50;99.90
34406;DHT22;20658;45.630;8.886;2023-05-20T08:57:37;14.50;99.90
34406;DHT22;20658;45.630;8.886;2023-05-20T09:00:14;14.50;99.90
34406;DHT22;20658;45.630;8.886;2023-05-20T09:02:48;14.50;99.90
34406;DHT22;20658;45.630;8.886;2023-05-20T09:05:24;14.50;99.90
34406;DHT22;20658;45.630;8.886;2023-05-20T09:08:03;14.60;99.90
34406;DHT22;20658;45.630;8.886;2023-05-20T09:10:34;14.60;99.90
34406;DHT22;20658;45.630;8.886;2023-05-20T09:13:09;14.80;99.90
34406;DHT22;20658;45.630;8.886;2023-05-20T09:15:38;14.90;99.90
34406;DHT22;20658;45.630;8.886;2023-05-20T09:18:12;15.00;99.90
34406;DHT22;20658;45.630;8.886;2023-05-20T09:20:49;15.20;99.90
34406;DHT22;20658;45.630;8.886;2023-05-20T09:23:23;15.50;99.90
34406;DHT22;20658;45.630;8.886;2023-05-20T09:26:00;15.40;99.90
34406;DHT22;20658;45.630;8.886;2023-05-20T09:28:29;15.60;99.90
34406;DHT22;20658;45.630;8.886;2023-05-20T09:30:58;15.60;99.90
34406;DHT22;20658;45.630;8.886;2023-05-20T09:33:32;15.50;99.90
34406;DHT22;20658;45.630;8.886;2023-05-20T09:36:08;15.60;99.90
34406;DHT22;20658;45.630;8.886;2023-05-20T09:38:43;15.60;99.90
34406;DHT22;20658;45.630;8.886;2023-05-20T09:41:13;15.60;99.50
34406;DHT22;20658;45.630;8.886;2023-05-20T09:43:47;15.70;98.60
34406;DHT22;20658;45.630;8.886;2023-05-20T09:46:18;15.80;98.40
34406;DHT22;20658;45.630;8.886;2023-05-20T09:48:52;15.90;99.50
34406;DHT22;20658;45.630;8.886;2023-05-20T09:51:23;16.00;98.70
34406;DHT22;20658;45.630;8.886;2023-05-20T09:53:57;16.20;99.60
34406;DHT22;20658;45.630;8.886;2023-05-20T09:56:33;16.20;98.20
34406;DHT22;20658;45.630;8.886;2023-05-20T09:59:08;16.20;98.80
34406;DHT22;20658;45.630;8.886;2023-05-20T10:01:43;16.20;99.00
34406;DHT22;20658;45.630;8.886;2023-05-20T10:04:19;16.20;99.90
34406;DHT22;20658;45.630;8.886;2023-05-20T10:07:19;16.20;99.90
34406;DHT22;20658;45.630;8.886;2023-05-20T10:10:10;16.10;99.90
34406;DHT22;20658;45.630;8.886;2023-05-20T10:12:56;16.20;99.90
34406;DHT22;20658;45.630;8.886;2023-05-20T10:15:37;16.10;98.90
34406;DHT22;20658;45.630;8.886;2023-05-20T10:18:27;16.00;99.40
34406;DHT22;20658;45.630;8.886;2023-05-20T10:21:00;15.90;99.90
34406;DHT22;20658;45.630;8.886;2023-05-20T10:23:35;16.00;99.90
34406;DHT22;20658;45.630;8.886;2023-05-20T10:26:08;16.10;99.90
34406;DHT22;20658;45.630;8.886;2023-05-20T10:28:42;16.10;99.90
34406;DHT22;20658;45.630;8.886;2023-05-20T10:31:21;16.00;99.90
34406;DHT22;20658;45.630;8.886;2023-05-20T10:33:58;15.90;99.90
34406;DHT22;20658;45.630;8.886;2023-05-20T10:36:28;15.90;99.90
34406;DHT22;20658;45.630;8.886;2023-05-20T10:39:04;16.00;99.90
34406;DHT22;20658;45.630;8.886;2023-05-20T10:41:38;16.00;99.90
34406;DHT22;20658;45.630;8.886;2023-05-20T10:44:11;16.00;99.90
34406;DHT22;20658;45.630;8.886;2023-05-20T10:46:45;16.00;99.90
34406;DHT22;20658;45.630;8.886;2023-05-20T10:49:19;16.00;99.90
34406;DHT22;20658;45.630;8.886;2023-05-20T10:51:52;16.00;99.90
34406;DHT22;20658;45.630;8.886;2023-05-20T10:54:28;16.00;99.90
34406;DHT22;20658;45.630;8.886;2023-05-20T10:57:05;15.90;99.90
34406;DHT22;20658;45.630;8.886;2023-05-20T10:59:41;15.90;99.90
34406;DHT22;20658;45.630;8.886;2023-05-20T11:02:15;15.90;99.90
34406;DHT22;20658;45.630;8.886;2023-05-20T11:04:45;15.90;99.90
34406;DHT22;20658;45.630;8.886;2023-05-20T11:07:24;15.80;99.90
34406;DHT22;20658;45.630;8.886;2023-05-20T11:10:00;15.90;99.90
34406;DHT22;20658;45.630;8.886;2023-05-20T11:12:35;15.90;99.90
34406;DHT22;20658;45.630;8.886;2023-05-20T11:15:10;16.00;99.90
34406;DHT22;20658;45.630;8.886;2023-05-20T11:17:53;15.80;99.90
34406;DHT22;20658;45.630;8.886;2023-05-20T11:20:27;15.70;99.90
34406;DHT22;20658;45.630;8.886;2023-05-20T11:23:01;15.70;99.90
34406;DHT22;20658;45.630;8.886;2023-05-20T11:25:36;15.80;99.90
34406;DHT22;20658;45.630;8.886;2023-05-20T11:28:13;15.70;99.90
34406;DHT22;20658;45.630;8.886;2023-05-20T11:30:47;15.70;99.90
34406;DHT22;20658;45.630;8.886;2023-05-20T11:33:24;15.70;99.90
34406;DHT22;20658;45.630;8.886;2023-05-20T11:35:59;15.40;99.90
34406;DHT22;20658;45.630;8.886;2023-05-20T11:38:30;15.80;99.90
34406;DHT22;20658;45.630;8.886;2023-05-20T11:41:05;15.80;99.90
34406;DHT22;20658;45.630;8.886;2023-05-20T11:43:33;15.90;99.90
34406;DHT22;20658;45.630;8.886;2023-05-20T11:46:08;15.90;99.90
34406;DHT22;20658;45.630;8.886;2023-05-20T11:48:50;15.90;99.90
34406;DHT22;20658;45.630;8.886;2023-05-20T11:51:26;15.90;99.90
34406;DHT22;20658;45.630;8.886;2023-05-20T11:54:01;15.90;99.90
34406;DHT22;20658;45.630;8.886;2023-05-20T11:56:37;15.90;99.90
34406;DHT22;20658;45.630;8.886;2023-05-20T11:59:13;15.70;99.90
34406;DHT22;20658;45.630;8.886;2023-05-20T12:01:47;15.70;99.90
34406;DHT22;20658;45.630;8.886;2023-05-20T12:04:21;15.60;99.90
34406;DHT22;20658;45.630;8.886;2023-05-20T12:06:54;15.50;99.90
34406;DHT22;20658;45.630;8.886;2023-05-20T12:09:23;15.40;99.90
34406;DHT22;20658;45.630;8.886;2023-05-20T12:11:58;15.30;99.90
34406;DHT22;20658;45.630;8.886;2023-05-20T12:14:32;15.40;99.90
34406;DHT22;20658;45.630;8.886;2023-05-20T12:17:05;15.40;99.90
34406;DHT22;20658;45.630;8.886;2023-05-20T12:19:33;15.30;99.90
34406;DHT22;20658;45.630;8.886;2023-05-20T12:22:02;15.10;99.90
34406;DHT22;20658;45.630;8.886;2023-05-20T12:24:35;15.10;99.90
34406;DHT22;20658;45.630;8.886;2023-05-20T12:27:10;15.00;99.90
34406;DHT22;20658;45.630;8.886;2023-05-20T12:29:44;15.10;99.90
34406;DHT22;20658;45.630;8.886;2023-05-20T12:32:13;15.10;99.90
34406;DHT22;20658;45.630;8.886;2023-05-20T12:34:46;15.00;99.90
34406;DHT22;20658;45.630;8.886;2023-05-20T12:37:19;15.10;99.90
34406;DHT22;20658;45.630;8.886;2023-05-20T12:39:53;15.10;99.90
34406;DHT22;20658;45.630;8.886;2023-05-20T12:42:28;15.10;99.90
34406;DHT22;20658;45.630;8.886;2023-05-20T12:45:01;15.00;99.90
34406;DHT22;20658;45.630;8.886;2023-05-20T12:47:35;15.10;99.90
34406;DHT22;20658;45.630;8.886;2023-05-20T12:50:09;15.10;99.90
34406;DHT22;20658;45.630;8.886;2023-05-20T12:52:43;15.20;99.90
34406;DHT22;20658;45.630;8.886;2023-05-20T12:55:16;15.30;99.90
34406;DHT22;20658;45.630;8.886;2023-05-20T12:57:51;15.50;99.90
34406;DHT22;20658;45.630;8.886;2023-05-20T13:00:21;15.60;99.90
34406;DHT22;20658;45.630;8.886;2023-05-20T13:02:49;15.60;99.90
34406;DHT22;20658;45.630;8.886;2023-05-20T13:05:23;15.60;99.90
34406;DHT22;20658;45.630;8.886;2023-05-20T13:07:52;15.60;99.90
34406;DHT22;20658;45.630;8.886;2023-05-20T13:10:25;15.70;99.90
34406;DHT22;20658;45.630;8.886;2023-05-20T13:12:55;15.70;99.90
34406;DHT22;20658;45.630;8.886;2023-05-20T13:15:29;15.70;99.90
34406;DHT22;20658;45.630;8.886;2023-05-20T13:17:58;15.60;99.90
34406;DHT22;20658;45.630;8.886;2023-05-20T13:20:34;15.70;99.90
34406;DHT22;20658;45.630;8.886;2023-05-20T13:23:08;15.80;99.90
34406;DHT22;20658;45.630;8.886;2023-05-20T13:25:36;15.80;99.90
34406;DHT22;20658;45.630;8.886;2023-05-20T13:28:06;15.80;99.90
34406;DHT22;20658;45.630;8.886;2023-05-20T13:30:41;15.90;99.90
34406;DHT22;20658;45.630;8.886;2023-05-20T13:33:14;16.00;99.90
34406;DHT22;20658;45.630;8.886;2023-05-20T13:35:47;16.00;99.90
34406;DHT22;20658;45.630;8.886;2023-05-20T13:38:16;15.90;99.90
34406;DHT22;20658;45.630;8.886;2023-05-20T13:40:44;15.80;99.90
34406;DHT22;20658;45.630;8.886;2023-05-20T13:43:19;15.70;99.90
34406;DHT22;20658;45.630;8.886;2023-05-20T13:45:53;15.60;99.90
34406;DHT22;20658;45.630;8.886;2023-05-20T13:48:26;15.50;99.90
34406;DHT22;20658;45.630;8.886;2023-05-20T13:51:00;15.50;99.90
34406;DHT22;20658;45.630;8.886;2023-05-20T13:53:33;15.50;99.90
34406;DHT22;20658;45.630;8.886;2023-05-20T13:56:07;15.60;99.90
34406;DHT22;20658;45.630;8.886;2023-05-20T13:58:42;15.50;99.90
34406;DHT22;20658;45.630;8.886;2023-05-20T14:01:10;15.50;99.90
34406;DHT22;20658;45.630;8.886;2023-05-20T14:03:44;15.60;99.90
34406;DHT22;20658;45.630;8.886;2023-05-20T14:06:13;15.50;99.90
34406;DHT22;20658;45.630;8.886;2023-05-20T14:08:49;15.40;99.90
34406;DHT22;20658;45.630;8.886;2023-05-20T14:11:23;15.40;99.90
34406;DHT22;20658;45.630;8.886;2023-05-20T14:13:57;15.30;99.90
34406;DHT22;20658;45.630;8.886;2023-05-20T14:16:31;15.30;99.90
34406;DHT22;20658;45.630;8.886;2023-05-20T14:19:04;15.30;99.90
34406;DHT22;20658;45.630;8.886;2023-05-20T14:21:33;15.30;99.90
34406;DHT22;20658;45.630;8.886;2023-05-20T14:24:01;15.30;99.90
34406;DHT22;20658;45.630;8.886;2023-05-20T14:26:35;15.40;99.90
34406;DHT22;20658;45.630;8.886;2023-05-20T14:29:09;15.40;99.90
34406;DHT22;20658;45.630;8.886;2023-05-20T14:31:43;15.50;99.90
34406;DHT22;20658;45.630;8.886;2023-05-20T14:34:16;15.50;99.90
34406;DHT22;20658;45.630;8.886;2023-05-20T14:36:50;15.60;99.90
34406;DHT22;20658;45.630;8.886;2023-05-20T14:39:23;15.60;99.90
34406;DHT22;20658;45.630;8.886;2023-05-20T14:41:52;15.60;99.90
34406;DHT22;20658;45.630;8.886;2023-05-20T14:44:26;15.60;99.90
34406;DHT22;20658;45.630;8.886;2023-05-20T14:46:55;15.50;99.90
34406;DHT22;20658;45.630;8.886;2023-05-20T14:49:23;15.50;99.90
34406;DHT22;20658;45.630;8.886;2023-05-20T14:51:52;15.50;99.90
34406;DHT22;20658;45.630;8.886;2023-05-20T14:54:25;15.50;99.90
34406;DHT22;20658;45.630;8.886;2023-05-20T14:56:59;15.50;99.90
34406;DHT22;20658;45.630;8.886;2023-05-20T14:59:34;15.40;99.90
34406;DHT22;20658;45.630;8.886;2023-05-20T15:02:07;15.50;99.90
34406;DHT22;20658;45.630;8.886;2023-05-20T15:04:41;15.50;99.90
34406;DHT22;20658;45.630;8.886;2023-05-20T15:07:17;15.50;99.90
34406;DHT22;20658;45.630;8.886;2023-05-20T15:09:50;15.60;99.90
34406;DHT22;20658;45.630;8.886;2023-05-20T15:12:23;15.70;99.90
34406;DHT22;20658;45.630;8.886;2023-05-20T15:14:58;15.70;99.90
34406;DHT22;20658;45.630;8.886;2023-05-20T15:17:32;15.70;99.90
34406;DHT22;20658;45.630;8.886;2023-05-20T15:20:08;15.70;99.90
34406;DHT22;20658;45.630;8.886;2023-05-20T15:22:45;15.70;99.90
34406;DHT22;20658;45.630;8.886;2023-05-20T15:25:18;15.60;99.90
34406;DHT22;20658;45.630;8.886;2023-05-20T15:27:52;15.60;99.90
34406;DHT22;20658;45.630;8.886;2023-05-20T15:30:27;15.60;99.90
34406;DHT22;20658;45.630;8.886;2023-05-20T15:32:55;15.50;99.90
34406;DHT22;20658;45.630;8.886;2023-05-20T15:35:29;15.40;99.90
34406;DHT22;20658;45.630;8.886;2023-05-20T15:38:02;15.40;99.90
34406;DHT22;20658;45.630;8.886;2023-05-20T15:40:36;15.30;99.90
34406;DHT22;20658;45.630;8.886;2023-05-20T15:43:10;15.30;99.90
34406;DHT22;20658;45.630;8.886;2023-05-20T15:45:45;15.30;99.90
34406;DHT22;20658;45.630;8.886;2023-05-20T15:48:19;15.20;99.90
34406;DHT22;20658;45.630;8.886;2023-05-20T15:50:52;15.20;99.90
34406;DHT22;20658;45.630;8.886;2023-05-20T15:53:26;15.20;99.90
34406;DHT22;20658;45.630;8.886;2023-05-20T15:55:59;15.10;99.90
34406;DHT22;20658;45.630;8.886;2023-05-20T15:58:33;15.10;99.90
34406;DHT22;20658;45.630;8.886;2023-05-20T16:01:08;15.10;99.90
34406;DHT22;20658;45.630;8.886;2023-05-20T16:03:42;15.00;99.90
34406;DHT22;20658;45.630;8.886;2023-05-20T16:06:15;15.00;99.90